createdAt,value
2018-09-30T00:01:34.939Z,10.00
2018-09-30T00:04:04.550Z,10.00
2018-09-30T00:06:33.806Z,10.00
2018-09-30T00:09:04.035Z,9.90
2018-09-30T00:11:34.582Z,9.90
2018-09-30T00:14:03.867Z,9.90
2018-09-30T00:16:33.372Z,9.90
2018-09-30T00:19:02.975Z,9.90
2018-09-30T00:21:32.864Z,9.90
2018-09-30T00:24:08.334Z,9.90
2018-09-30T00:26:43.844Z,9.90
2018-09-30T00:29:13.241Z,9.90
2018-09-30T00:31:42.345Z,9.90
2018-09-30T00:34:17.160Z,9.90
2018-09-30T00:36:46.294Z,9.90
2018-09-30T00:39:15.624Z,9.90
2018-09-30T00:41:44.697Z,9.90
2018-09-30T00:44:14.068Z,9.90
2018-09-30T00:46:43.219Z,9.80
2018-09-30T00:49:12.355Z,9.80
2018-09-30T00:51:41.540Z,9.80
2018-09-30T00:54:10.814Z,9.80
2018-09-30T00:56:40.503Z,9.80
2018-09-30T00:59:10.407Z,9.80
2018-09-30T01:01:39.971Z,9.80
2018-09-30T01:04:10.105Z,9.90
2018-09-30T01:06:39.603Z,9.90
2018-09-30T01:09:12.684Z,9.80
2018-09-30T01:11:42.374Z,9.80
2018-09-30T01:14:12.481Z,9.80
2018-09-30T01:16:42.258Z,9.80
2018-09-30T01:19:11.407Z,9.80
2018-09-30T01:21:40.438Z,9.80
2018-09-30T01:24:09.813Z,9.80
2018-09-30T01:26:40.462Z,9.70
2018-09-30T01:29:09.813Z,9.60
2018-09-30T01:31:39.129Z,9.60
2018-09-30T01:34:08.186Z,9.50
2018-09-30T01:36:37.163Z,9.50
2018-09-30T01:39:07.229Z,9.50
2018-09-30T01:41:36.031Z,9.40
2018-09-30T01:44:05.018Z,9.40
2018-09-30T01:46:34.118Z,9.30
2018-09-30T01:49:03.429Z,9.40
2018-09-30T01:51:33.072Z,9.30
2018-09-30T01:54:02.446Z,9.30
2018-09-30T01:56:32.149Z,9.10
2018-09-30T01:59:01.551Z,9.10
2018-09-30T02:01:30.563Z,9.00
2018-09-30T02:04:00.236Z,8.90
2018-09-30T02:06:29.352Z,8.90
2018-09-30T02:08:58.773Z,8.90
2018-09-30T02:11:27.751Z,8.80
2018-09-30T02:13:56.910Z,8.80
2018-09-30T02:16:26.043Z,8.80
2018-09-30T02:18:57.345Z,8.80
2018-09-30T02:21:26.796Z,8.70
2018-09-30T02:23:56.033Z,8.80
2018-09-30T02:26:25.783Z,8.70
2018-09-30T02:28:54.934Z,8.60
2018-09-30T02:31:24.253Z,8.60
2018-09-30T02:33:53.344Z,8.60
2018-09-30T02:36:22.673Z,8.60
2018-09-30T02:38:52.195Z,8.50
2018-09-30T02:41:21.546Z,8.50
2018-09-30T02:43:50.557Z,8.50
2018-09-30T02:46:19.516Z,8.50
2018-09-30T02:48:48.828Z,8.50
2018-09-30T02:51:18.124Z,8.40
2018-09-30T02:53:47.450Z,8.50
2018-09-30T02:56:16.771Z,8.40
2018-09-30T02:58:46.439Z,8.40
2018-09-30T03:01:16.060Z,8.40
2018-09-30T03:03:45.359Z,8.30
2018-09-30T03:06:20.079Z,8.40
2018-09-30T03:08:54.305Z,8.40
2018-09-30T03:11:23.298Z,8.30
2018-09-30T03:13:52.749Z,8.30
2018-09-30T03:16:21.699Z,8.30
2018-09-30T03:18:50.660Z,8.20
2018-09-30T03:21:20.906Z,8.20
2018-09-30T03:23:57.055Z,8.30
2018-09-30T03:26:26.390Z,8.20
2018-09-30T03:28:55.889Z,8.20
2018-09-30T03:31:25.069Z,8.10
2018-09-30T03:33:54.434Z,8.10
2018-09-30T03:36:23.546Z,8.00
2018-09-30T03:38:52.573Z,7.90
2018-09-30T03:41:21.897Z,7.90
2018-09-30T03:43:50.971Z,7.90
2018-09-30T03:46:20.273Z,7.90
2018-09-30T03:48:49.665Z,7.80
2018-09-30T03:51:18.637Z,7.80
2018-09-30T03:53:48.330Z,7.80
2018-09-30T03:56:17.964Z,7.80
2018-09-30T03:58:47.321Z,7.80
2018-09-30T04:01:16.685Z,7.80
2018-09-30T04:03:46.775Z,7.90
2018-09-30T04:06:16.384Z,7.80
2018-09-30T04:08:45.351Z,7.80
2018-09-30T04:11:14.885Z,7.80
2018-09-30T04:13:45.157Z,7.70
2018-09-30T04:16:14.426Z,7.70
2018-09-30T04:18:43.575Z,7.70
2018-09-30T04:21:12.631Z,7.60
2018-09-30T04:23:42.175Z,7.60
2018-09-30T04:26:11.291Z,7.60
2018-09-30T04:28:41.094Z,7.60
2018-09-30T04:31:10.131Z,7.60
2018-09-30T04:33:39.437Z,7.60
2018-09-30T04:36:08.752Z,7.60
2018-09-30T04:38:38.078Z,7.60
2018-09-30T04:41:07.411Z,7.60
2018-09-30T04:43:36.237Z,7.70
2018-09-30T04:46:05.664Z,7.60
2018-09-30T04:48:34.635Z,7.60
2018-09-30T04:51:03.976Z,7.60
2018-09-30T04:53:33.399Z,7.60
2018-09-30T04:56:02.700Z,7.60
2018-09-30T04:58:31.734Z,7.60
2018-09-30T05:01:00.888Z,7.50
2018-09-30T05:03:30.101Z,7.50
2018-09-30T05:05:59.435Z,7.50
2018-09-30T05:08:28.482Z,7.50
2018-09-30T05:10:57.719Z,7.50
2018-09-30T05:13:28.194Z,7.50
2018-09-30T05:15:57.870Z,7.50
2018-09-30T05:18:27.299Z,7.50
2018-09-30T05:20:56.329Z,7.60
2018-09-30T05:23:25.487Z,7.60
2018-09-30T05:25:54.715Z,7.70
2018-09-30T05:28:24.055Z,7.70
2018-09-30T05:30:54.493Z,7.70
2018-09-30T05:33:24.042Z,7.80
2018-09-30T05:35:53.997Z,7.80
2018-09-30T05:38:23.589Z,7.90
2018-09-30T05:40:52.967Z,7.90
2018-09-30T05:43:23.141Z,8.10
2018-09-30T05:45:52.820Z,8.10
2018-09-30T05:48:21.812Z,8.20
2018-09-30T05:50:51.146Z,8.20
2018-09-30T05:53:20.471Z,8.20
2018-09-30T05:55:49.859Z,8.20
2018-09-30T05:58:19.197Z,8.30
2018-09-30T06:00:48.205Z,8.40
2018-09-30T06:03:17.511Z,8.50
2018-09-30T06:05:46.544Z,8.90
2018-09-30T06:08:15.829Z,9.30
2018-09-30T06:10:45.131Z,9.90
2018-09-30T06:13:13.919Z,10.40
2018-09-30T06:15:42.897Z,12.00
2018-09-30T06:18:12.173Z,13.60
2018-09-30T06:20:42.111Z,14.90
2018-09-30T06:23:11.658Z,16.00
2018-09-30T06:25:40.710Z,16.10
2018-09-30T06:28:09.952Z,17.00
2018-09-30T06:30:39.868Z,18.10
2018-09-30T06:33:09.063Z,19.30
2018-09-30T06:35:38.691Z,20.10
2018-09-30T06:38:07.879Z,20.50
2018-09-30T06:40:37.092Z,21.10
2018-09-30T06:43:06.843Z,21.80
2018-09-30T06:45:36.512Z,21.80
2018-09-30T06:48:06.038Z,22.20
2018-09-30T06:50:35.364Z,22.70
2018-09-30T06:53:04.963Z,22.70
2018-09-30T06:55:34.352Z,22.80
2018-09-30T06:58:03.748Z,23.20
2018-09-30T07:00:32.740Z,24.00
2018-09-30T07:03:01.716Z,24.50
2018-09-30T07:05:31.046Z,24.50
2018-09-30T07:08:00.054Z,25.20
2018-09-30T07:10:29.470Z,25.20
2018-09-30T07:12:58.298Z,25.10
2018-09-30T07:15:27.704Z,24.80
2018-09-30T07:17:56.712Z,25.60
2018-09-30T07:20:25.706Z,26.60
2018-09-30T07:22:55.696Z,27.30
2018-09-30T07:25:25.576Z,28.40
2018-09-30T07:27:55.498Z,29.40
2018-09-30T07:30:25.064Z,29.80
2018-09-30T07:32:54.650Z,29.80
2018-09-30T07:35:24.228Z,30.30
2018-09-30T07:37:54.170Z,30.10
2018-09-30T07:40:23.739Z,30.60
2018-09-30T07:42:53.321Z,31.00
2018-09-30T07:45:23.045Z,31.00
2018-09-30T07:47:52.788Z,29.00
2018-09-30T07:50:22.802Z,29.60
2018-09-30T07:52:52.766Z,29.90
2018-09-30T07:55:22.518Z,29.60
2018-09-30T07:57:52.783Z,30.10
2018-09-30T08:00:22.389Z,30.20
2018-09-30T08:02:52.466Z,30.10
2018-09-30T08:05:22.267Z,30.90
2018-09-30T08:07:52.309Z,31.00
2018-09-30T08:10:22.218Z,29.80
2018-09-30T08:12:52.147Z,30.10
2018-09-30T08:15:21.981Z,30.10
2018-09-30T08:17:52.035Z,31.00
2018-09-30T08:20:21.953Z,32.00
2018-09-30T08:22:51.750Z,32.70
2018-09-30T08:25:21.683Z,33.50
2018-09-30T08:27:52.209Z,33.50
2018-09-30T08:30:22.165Z,33.30
2018-09-30T08:32:53.048Z,33.30
2018-09-30T08:35:22.909Z,32.30
2018-09-30T08:37:58.261Z,31.40
2018-09-30T08:40:33.800Z,30.60
2018-09-30T08:43:03.552Z,31.20
2018-09-30T08:45:33.348Z,31.70
2018-09-30T08:48:03.283Z,31.90
2018-09-30T08:50:33.063Z,32.20
2018-09-30T08:53:02.592Z,31.40
2018-09-30T08:55:32.377Z,31.40
2018-09-30T08:58:02.330Z,31.20
2018-09-30T09:00:31.938Z,30.30
2018-09-30T09:03:01.655Z,29.70
2018-09-30T09:05:32.915Z,28.40
2018-09-30T09:08:02.735Z,27.20
2018-09-30T09:10:32.217Z,26.30
2018-09-30T09:13:01.683Z,25.10
2018-09-30T09:15:30.895Z,24.40
2018-09-30T09:18:00.206Z,23.90
2018-09-30T09:20:29.620Z,23.10
2018-09-30T09:22:58.890Z,23.10
2018-09-30T09:25:28.134Z,22.80
2018-09-30T09:27:57.538Z,22.60
2018-09-30T09:30:27.106Z,22.40
2018-09-30T09:32:56.452Z,22.00
2018-09-30T09:35:25.949Z,21.50
2018-09-30T09:37:54.990Z,20.90
2018-09-30T09:40:24.877Z,20.30
2018-09-30T09:42:53.901Z,20.30
2018-09-30T09:45:22.933Z,20.30
2018-09-30T09:47:52.741Z,20.30
2018-09-30T09:50:22.041Z,20.30
2018-09-30T09:52:51.042Z,19.90
2018-09-30T09:55:20.072Z,19.90
2018-09-30T09:57:49.024Z,19.90
2018-09-30T10:00:23.510Z,20.00
2018-09-30T10:02:52.560Z,20.10
2018-09-30T10:05:21.579Z,19.90
2018-09-30T10:07:51.010Z,19.70
2018-09-30T10:10:20.020Z,19.60
2018-09-30T10:12:49.106Z,19.40
2018-09-30T10:15:18.005Z,19.50
2018-09-30T10:17:47.053Z,19.60
2018-09-30T10:20:16.843Z,19.60
2018-09-30T10:22:46.035Z,19.60
2018-09-30T10:25:15.636Z,19.40
2018-09-30T10:27:45.057Z,19.30
2018-09-30T10:30:14.799Z,19.40
2018-09-30T10:32:44.137Z,19.40
2018-09-30T10:35:15.651Z,19.30
2018-09-30T10:37:45.057Z,19.40
2018-09-30T10:40:15.758Z,19.40
2018-09-30T10:42:45.262Z,19.20
2018-09-30T10:45:15.604Z,19.10
2018-09-30T10:47:45.952Z,19.10
2018-09-30T10:50:15.575Z,18.90
2018-09-30T10:52:44.929Z,18.70
2018-09-30T10:55:14.277Z,18.70
2018-09-30T10:57:43.816Z,18.80
2018-09-30T11:00:13.010Z,18.70
2018-09-30T11:02:42.167Z,18.70
2018-09-30T11:07:40.803Z,18.70
2018-09-30T11:10:11.064Z,18.70
2018-09-30T11:12:40.323Z,18.70
2018-09-30T11:15:10.772Z,18.70
2018-09-30T11:17:40.089Z,18.70
2018-09-30T11:20:09.398Z,18.70
2018-09-30T11:22:39.087Z,18.70
2018-09-30T11:25:11.438Z,18.70
2018-09-30T11:27:40.600Z,18.60
2018-09-30T11:30:10.041Z,18.60
2018-09-30T11:32:45.453Z,18.60
2018-09-30T11:35:15.674Z,18.50
2018-09-30T11:37:45.101Z,18.50
2018-09-30T11:40:14.539Z,18.60
2018-09-30T11:42:43.829Z,18.50
2018-09-30T11:45:13.528Z,18.50
2018-09-30T11:47:43.631Z,18.40
2018-09-30T11:50:13.408Z,18.40
2018-09-30T11:52:42.566Z,18.30
2018-09-30T11:55:12.059Z,18.20
2018-09-30T11:57:41.746Z,18.20
2018-09-30T12:00:12.087Z,18.10
2018-09-30T12:02:41.559Z,18.10
2018-09-30T12:05:10.645Z,18.00
2018-09-30T12:07:42.961Z,17.90
2018-09-30T12:10:12.119Z,17.90
2018-09-30T12:12:42.003Z,17.80
2018-09-30T12:15:12.224Z,17.80
2018-09-30T12:17:41.323Z,17.70
2018-09-30T12:20:10.554Z,17.70
2018-09-30T12:22:41.257Z,17.60
2018-09-30T12:25:12.420Z,17.60
2018-09-30T12:27:41.752Z,17.60
2018-09-30T12:30:10.877Z,17.60
2018-09-30T12:32:40.979Z,17.50
2018-09-30T12:35:12.848Z,17.50
2018-09-30T12:37:42.958Z,17.50
2018-09-30T12:40:12.983Z,17.40
2018-09-30T12:42:43.579Z,17.50
2018-09-30T12:45:13.170Z,17.50
2018-09-30T12:47:43.242Z,17.50
2018-09-30T12:50:12.422Z,17.60
2018-09-30T12:52:41.812Z,17.60
2018-09-30T12:55:12.560Z,17.60
2018-09-30T12:57:43.228Z,17.60
2018-09-30T13:00:13.017Z,17.60
2018-09-30T13:02:42.264Z,17.60
2018-09-30T13:05:13.884Z,17.60
2018-09-30T13:07:44.069Z,17.50
2018-09-30T13:10:13.450Z,17.50
2018-09-30T13:12:42.755Z,17.50
2018-09-30T13:15:13.709Z,17.50
2018-09-30T13:17:43.766Z,17.50
2018-09-30T13:20:13.317Z,17.50
2018-09-30T13:22:44.604Z,17.50
2018-09-30T13:25:14.688Z,17.60
2018-09-30T13:27:44.928Z,17.50
2018-09-30T13:30:14.434Z,17.50
2018-09-30T13:32:43.746Z,17.60
2018-09-30T13:35:13.318Z,17.60
2018-09-30T13:37:45.694Z,17.60
2018-09-30T13:40:15.738Z,17.60
2018-09-30T13:42:45.737Z,17.70
2018-09-30T13:45:15.106Z,17.70
2018-09-30T13:47:44.738Z,17.60
2018-09-30T13:50:14.851Z,17.60
2018-09-30T13:52:45.314Z,17.60
2018-09-30T13:55:15.249Z,17.60
2018-09-30T13:57:46.358Z,17.70
2018-09-30T14:00:15.957Z,17.70
2018-09-30T14:02:45.568Z,17.70
2018-09-30T14:05:15.083Z,17.70
2018-09-30T14:07:44.469Z,17.80
2018-09-30T14:10:14.292Z,17.80
2018-09-30T14:12:43.796Z,17.70
2018-09-30T14:15:13.721Z,17.80
2018-09-30T14:17:43.252Z,17.80
2018-09-30T14:20:13.322Z,17.80
2018-09-30T14:22:42.929Z,17.80
2018-09-30T14:25:13.112Z,17.80
2018-09-30T14:27:42.533Z,17.80
2018-09-30T14:30:12.232Z,17.80
2018-09-30T14:32:42.182Z,17.80
2018-09-30T14:35:11.953Z,17.80
2018-09-30T14:37:42.131Z,17.80
2018-09-30T14:40:11.563Z,17.80
2018-09-30T14:42:40.747Z,17.80
2018-09-30T14:45:10.538Z,17.80
2018-09-30T14:47:39.913Z,17.80
2018-09-30T14:50:10.265Z,17.80
2018-09-30T14:52:40.311Z,17.80
2018-09-30T14:55:09.890Z,17.80
2018-09-30T14:57:39.564Z,17.80
2018-09-30T15:00:10.948Z,17.70
2018-09-30T15:02:41.401Z,17.70
2018-09-30T15:05:11.880Z,17.70
2018-09-30T15:07:41.738Z,17.70
2018-09-30T15:10:11.535Z,17.70
2018-09-30T15:12:40.574Z,17.70
2018-09-30T15:15:10.032Z,17.70
2018-09-30T15:17:39.397Z,17.60
2018-09-30T15:20:08.730Z,17.60
2018-09-30T15:22:39.172Z,17.60
2018-09-30T15:25:09.292Z,17.60
2018-09-30T15:27:40.271Z,17.60
2018-09-30T15:30:11.128Z,17.60
2018-09-30T15:32:41.504Z,17.60
2018-09-30T15:35:10.848Z,17.50
2018-09-30T15:37:40.373Z,17.50
2018-09-30T15:40:10.219Z,17.50
2018-09-30T15:42:39.721Z,17.40
2018-09-30T15:45:09.816Z,17.40
2018-09-30T15:47:40.394Z,17.40
2018-09-30T15:50:09.610Z,17.40
2018-09-30T15:52:39.504Z,17.30
2018-09-30T15:55:09.867Z,17.30
2018-09-30T15:57:39.888Z,17.30
2018-09-30T16:00:10.647Z,17.20
2018-09-30T16:02:42.042Z,17.20
2018-09-30T16:05:11.643Z,17.20
2018-09-30T16:07:42.914Z,17.10
2018-09-30T16:10:13.326Z,17.10
2018-09-30T16:12:43.293Z,17.10
2018-09-30T16:15:12.590Z,17.00
2018-09-30T16:17:43.057Z,17.00
2018-09-30T16:20:13.284Z,16.90
2018-09-30T16:22:44.020Z,16.90
2018-09-30T16:25:14.238Z,16.80
2018-09-30T16:27:44.452Z,16.80
2018-09-30T16:30:14.730Z,16.70
2018-09-30T16:32:44.399Z,16.70
2018-09-30T16:35:13.989Z,16.60
2018-09-30T16:37:45.297Z,16.60
2018-09-30T16:40:16.013Z,16.50
2018-09-30T16:42:52.380Z,16.40
2018-09-30T16:45:21.677Z,16.30
2018-09-30T16:47:51.569Z,16.30
2018-09-30T16:50:21.329Z,16.20
2018-09-30T16:52:51.288Z,16.20
2018-09-30T16:55:20.968Z,16.10
2018-09-30T16:57:50.591Z,16.00
2018-09-30T17:00:20.379Z,15.90
2018-09-30T17:02:50.167Z,15.90
2018-09-30T17:05:20.670Z,15.90
2018-09-30T17:07:50.829Z,15.80
2018-09-30T17:10:21.278Z,15.70
2018-09-30T17:12:51.630Z,15.70
2018-09-30T17:15:21.843Z,15.60
2018-09-30T17:17:52.039Z,15.60
2018-09-30T17:20:21.807Z,15.50
2018-09-30T17:22:57.735Z,15.50
2018-09-30T17:25:28.280Z,15.40
2018-09-30T17:27:57.774Z,15.40
2018-09-30T17:30:27.493Z,15.30
2018-09-30T17:32:57.379Z,15.30
2018-09-30T17:35:27.653Z,15.20
2018-09-30T17:37:57.672Z,15.20
2018-09-30T17:40:28.053Z,15.10
2018-09-30T17:42:58.355Z,15.10
2018-09-30T17:45:28.388Z,15.10
2018-09-30T17:47:58.063Z,15.00
2018-09-30T17:50:28.401Z,15.00
2018-09-30T17:52:58.889Z,15.00
2018-09-30T17:55:29.083Z,14.90
2018-09-30T17:57:59.450Z,14.80
2018-09-30T18:00:29.283Z,14.80
2018-09-30T18:02:59.682Z,14.70
2018-09-30T18:05:29.509Z,14.70
2018-09-30T18:07:59.252Z,14.60
2018-09-30T18:10:29.537Z,14.60
2018-09-30T18:12:59.615Z,14.50
2018-09-30T18:15:29.711Z,14.40
2018-09-30T18:18:00.692Z,14.40
2018-09-30T18:20:30.877Z,14.40
2018-09-30T18:23:01.102Z,14.40
2018-09-30T18:25:31.820Z,14.30
2018-09-30T18:28:02.386Z,14.30
2018-09-30T18:30:32.868Z,14.20
2018-09-30T18:33:03.198Z,14.10
2018-09-30T18:35:34.060Z,14.10
2018-09-30T18:38:04.446Z,14.10
2018-09-30T18:40:44.024Z,14.10
2018-09-30T18:43:15.568Z,14.00
2018-09-30T18:45:46.206Z,14.00
2018-09-30T18:48:16.732Z,14.00
2018-09-30T18:50:46.910Z,13.90
2018-09-30T18:53:17.249Z,14.00
2018-09-30T18:55:47.110Z,13.90
2018-09-30T18:58:18.261Z,13.90
2018-09-30T19:00:49.178Z,13.90
2018-09-30T19:03:20.000Z,13.80
2018-09-30T19:05:50.264Z,13.80
2018-09-30T19:08:21.507Z,13.80
2018-09-30T19:10:52.076Z,13.70
2018-09-30T19:13:22.642Z,13.70
2018-09-30T19:15:53.678Z,13.70
2018-09-30T19:18:24.715Z,13.70
2018-09-30T19:20:55.637Z,13.60
2018-09-30T19:23:25.935Z,13.50
2018-09-30T19:25:56.568Z,13.50
2018-09-30T19:28:27.122Z,13.50
2018-09-30T19:30:57.336Z,13.50
2018-09-30T19:33:28.825Z,13.40
2018-09-30T19:35:59.438Z,13.40
2018-09-30T19:38:29.577Z,13.30
2018-09-30T19:43:28.208Z,13.30
2018-09-30T19:45:58.552Z,13.20
2018-09-30T19:48:29.216Z,13.10
2018-09-30T19:51:00.265Z,13.10
2018-09-30T19:53:31.821Z,13.10
2018-09-30T19:56:02.461Z,13.10
2018-09-30T19:58:33.453Z,13.10
2018-09-30T20:01:04.352Z,13.10
2018-09-30T20:03:34.670Z,13.00
2018-09-30T20:06:05.617Z,12.90
2018-09-30T20:08:36.649Z,12.90
2018-09-30T20:11:07.749Z,12.80
2018-09-30T20:13:38.464Z,12.70
2018-09-30T20:16:10.775Z,12.60
2018-09-30T20:18:42.848Z,12.60
2018-09-30T20:21:14.689Z,12.50
2018-09-30T20:23:44.967Z,12.40
2018-09-30T20:26:16.482Z,12.40
2018-09-30T20:28:47.840Z,12.40
2018-09-30T20:31:19.279Z,12.30
2018-09-30T20:33:50.472Z,12.30
2018-09-30T20:36:20.581Z,12.20
2018-09-30T20:38:50.596Z,12.20
2018-09-30T20:41:25.695Z,12.10
2018-09-30T20:43:57.638Z,12.10
2018-09-30T20:46:28.635Z,12.10
2018-09-30T20:48:58.632Z,12.00
2018-09-30T20:51:31.423Z,12.00
2018-09-30T20:54:02.526Z,11.90
2018-09-30T20:56:32.959Z,11.90
2018-09-30T20:59:06.812Z,11.90
2018-09-30T21:01:37.028Z,11.90
2018-09-30T21:04:08.846Z,11.80
2018-09-30T21:06:40.497Z,11.80
2018-09-30T21:09:13.560Z,11.80
2018-09-30T21:11:44.566Z,11.80
2018-09-30T21:14:14.053Z,11.70
2018-09-30T21:16:43.983Z,11.70
2018-09-30T21:19:14.284Z,11.70
2018-09-30T21:21:44.514Z,11.70
2018-09-30T21:24:15.448Z,11.70
2018-09-30T21:26:46.195Z,11.70
2018-09-30T21:29:15.540Z,11.60
2018-09-30T21:31:45.678Z,11.60
2018-09-30T21:34:14.962Z,11.60
2018-09-30T21:36:44.175Z,11.60
2018-09-30T21:39:13.371Z,11.60
2018-09-30T21:41:42.655Z,11.50
2018-09-30T21:44:12.104Z,11.50
2018-09-30T21:46:41.513Z,11.50
2018-09-30T21:49:12.393Z,11.50
2018-09-30T21:51:42.889Z,11.40
2018-09-30T21:54:12.517Z,11.40
2018-09-30T21:56:42.105Z,11.40
2018-09-30T21:59:11.687Z,11.30
2018-09-30T22:01:42.744Z,11.30
2018-09-30T22:04:12.378Z,11.20
2018-09-30T22:06:42.578Z,11.20
2018-09-30T22:09:12.144Z,11.10
2018-09-30T22:11:41.586Z,11.10
2018-09-30T22:14:12.949Z,11.10
2018-09-30T22:16:43.722Z,11.10
2018-09-30T22:19:14.661Z,11.00
2018-09-30T22:21:45.006Z,11.00
2018-09-30T22:24:14.699Z,11.00
2018-09-30T22:26:45.526Z,10.90
2018-09-30T22:29:16.754Z,10.90
2018-09-30T22:31:46.309Z,10.90
2018-09-30T22:34:16.574Z,10.90
2018-09-30T22:36:46.326Z,10.90
2018-09-30T22:39:16.158Z,10.80
2018-09-30T22:41:45.837Z,10.80
2018-09-30T22:44:15.553Z,10.80
2018-09-30T22:46:45.771Z,10.80
2018-09-30T22:49:15.696Z,10.80
2018-09-30T22:51:45.571Z,10.70
2018-09-30T22:54:18.341Z,10.70
2018-09-30T22:56:48.473Z,10.70
2018-09-30T22:59:18.187Z,10.70
2018-09-30T23:01:48.219Z,10.60
2018-09-30T23:04:18.003Z,10.60
2018-09-30T23:06:47.979Z,10.60
2018-09-30T23:09:17.226Z,10.50
2018-09-30T23:11:47.390Z,10.50
2018-09-30T23:14:17.895Z,10.50
2018-09-30T23:16:48.124Z,10.50
2018-09-30T23:19:17.406Z,10.50
2018-09-30T23:21:47.223Z,10.40
2018-09-30T23:24:19.692Z,10.50
2018-09-30T23:26:52.567Z,10.50
2018-09-30T23:29:25.373Z,10.50
2018-09-30T23:31:58.702Z,10.50
2018-09-30T23:34:31.067Z,10.50
2018-09-30T23:37:00.901Z,10.60
2018-09-30T23:39:33.602Z,10.60
2018-09-30T23:42:03.659Z,10.60
2018-09-30T23:44:33.276Z,10.70
2018-09-30T23:47:02.329Z,10.80
2018-09-30T23:49:36.515Z,10.80
2018-09-30T23:52:12.709Z,10.80
2018-09-30T23:54:42.561Z,10.80
2018-09-30T23:57:11.651Z,10.90
2018-09-30T23:59:41.720Z,10.90
